Baltimore, MD (21230)

1:48 PM EST on December 22, 2014 (GMT -0500)
Federal Hill South | Change Station
CLOSE
Current Station
Personal Weather Station
Location: Baltimore, MD
Elevation: 62 ft
Nearby Weather Stations

Elev 62 ft 39.27 °N, 76.61 °W | Updated 6 minutes ago

Mostly Cloudy
Mostly Cloudy
39.6 °F
Feels Like 40 °F
N
1.1
Wind Variable Wind from NE

Today
High -- | Low -- °F
--% Chance of Precip.
Yesterday
High -- | Low -- °F
Precip. -- in
7:23 AM 4:47 PM
New Moon, 1% visible
Pressure 30.23 in
Visibility 9.0 miles
Clouds Scattered Clouds 4100 ft
Mostly Cloudy 6500 ft
Overcast 8000 ft
Windchill 40 °F
Dew Point 38 °F
Humidity 92%
Rainfall 0.00 in
Snow Depth Not available.
UV 1 out of 12
Pollen .10 out of 12
Air Quality Not available.
Flu Activity Not available.
METAR KBWI 221754Z 05004KT 9SM -RA SCT041 BKN065 OVC080 02/M02 A3022 RMK AO2 RAE1657B22UPB36E38 SLP236 P0000 60000 T00221022 10022 21006 58029

More Conditions Fewer Conditions

Pressure 30.23 in
Visibility 9.0 miles
Clouds Scattered Clouds 4100 ft
Mostly Cloudy 6500 ft
Overcast 8000 ft
Windchill 40 °F
Dew Point 38 °F
Humidity 92%
Rainfall 0.00 in
Snow Depth Not available.
UV 1 out of 12
Pollen .10 out of 12
Air Quality Not available.
Flu Activity Not available.
METAR KBWI 221754Z 05004KT 9SM -RA SCT041 BKN065 OVC080 02/M02 A3022 RMK AO2 RAE1657B22UPB36E38 SLP236 P0000 60000 T00221022 10022 21006 58029

More Conditions Fewer Conditions

10-Day Weather Forecast

Almanac

Astronomy

Dec. 22, 2014 Rise Set
Actual Time
Civil Twilight
Nautical Twilight
Astronomical Twilight
Moon
Length of Visible Light
Length of Day
Tomorrow will be .
, % of the Moon is Illuminated

Today's Extremes

State Highs State Lows

Community

WunderPhotos

Upload Photos

1,779,687 photos uploaded!

WunderBlogs® & News

Nearby

Air Quality

  Air Quality AQ Index Pollutant
Not available.

Snow Depth

Station Depth Elevation

Earthquake Activity

City Distance Mag. Time & Date
Minimum magnitude displayed is 2.5.

Coastal Water Temperatures

Place Temperature

Nearby Weather Stations